Hlavní strana
METAR-TAF:

METAR-TAF

Letiště :

Letiště Palma de Mallorca

Palma de Mallorca, Španělsko

zeměpisná šířka: 39-33N, zeměpisná délka: 002-44E, výška: 4 m

Aktuální stav počasí

Zpráva byla vytvořena před 10 minutami, v 05:00 UTC
Severovýchodní vítr 3 kt
Teplota 17°C
Vlhkost vzduchu 100%
Tlak 1019 hPa
Viditelnost 10 km a více
Žádná oblačnost pod 1500 m, nevyskytují se cumulonimby.

METAR: LEPA 200500Z 05003KT CAVOK 17/17 Q1019 NOSIG

Čas: 07:10 (05:10 UTC)

Předpověď počasí

Zpráva byla vytvořena před 6 hodinami a 10 minutami, v 23:00 UTC
Předpověď platná od 20 v 00 UTC do 20 v 24 UTC
vítr z různých směrů 3 kt
Viditelnost 10 km a více
Skoro jasno ve výšce 3000 ft
Změna
od 20 v 10 UTC do 20 v 12 UTC
Jihojihozápadní vítr 10 kt
Změna
od 20 v 17 UTC do 20 v 19 UTC
vítr z různých směrů 3 kt

TAF: LEPA 192300Z 2000/2024 VRB03KT 9999 FEW030 TX31/2014Z TN17/2006Z BECMG 2010/2012 21010KT BECMG 2017/2019 VRB03KT

Stav a předpovědi počasí z více než 4 000 letišť (zprávy METAR a TAF).

Červené a žluté tečky na mapě představují dostupné meteorologické stanice.

Když kurzor umístíte na tečku, zobrazí se název stanice.

Pak kliknutím zobrazíte stav a předpověď počasí.

Chcete-li změnit mapu, kliknutím na zelené tlačítko se znaménkem +mapu přiblížíte, kliknutím na zelené tlačítko se znaménkem – mapu oddálíte a kliknutím na zelené šipky přejdete na sousední mapy.


METAR-TAF: